Taoxian Airport
ZYTX : now visible

Airfield :











YOU CAN JOIN US ON...

 
LOGIN :

Register | Disclaimer

   EN    FR    IT 

 









Legend :    VFR   Marginal VFR   IFR   Intensive IFR   Very Intensive IFR
Visi :
Ceiling :
>= 8 km
>= 3000ft
5 to 8 km
1000 to 3000 ft
1500m to 5 km
500 to 1000 ft
800 to 1500m
200 to 500 ft
< 800m
< 200 ft
Symbols :   Thunderstorms  Fog  Heavy snow  Heavy precipitations  Wind > 20 kt






- Airport Elevation : 198 ft
- IATA code : SHE


ZYTX - Taoxian

CURRENT METAR :
  • 121830Z 32003MPS 9999 OVC033 09/04 Q1016 NOSIG

EXPIRED METARs :
  • 121800Z 31003MPS 9999 OVC040 09/04 Q1016 NOSIG
  • 121730Z 21001MPS 9999 OVC040 08/03 Q1015 NOSIG
  • 121700Z 25001MPS CAVOK 07/03 Q1015 NOSIG
  • 121630Z VRB01MPS CAVOK 08/03 Q1016 NOSIG
  • 121600Z 15001MPS CAVOK 09/02 Q1016 NOSIG

TAF TAF ZYTX
Valid from the 12 at 18:00 until the 13 at 18:00 UTC


121318Z 1218/1318 19004MPS 6000 -RA BKN040 TX04/1218Z TNM07/17Z
BECMG 1220/1221 34004MPS
BECMG 1301/1302 -SN
BECMG 1307/1308 CAVOK



MET'MAP, your aeronautical weather chart ! - Copyright ORBIFLY December 2007 - Disclaimer

ORBIFLY MET'MAP TEAM :

Programming & Development : Alexandra Zaïnal
Concept & Development : Baudouin d'Aumeries
Co-Development & Prog : Marc-Olivier Méhu
Technical & hardware support : Manuel Goepfert

Contact : metmap@orbifly.com




SOURCES & CREDITS :

   NOAA       Earth
Advisory